Time;durP1;ratioP1;P1;durP2;ratioP2;P2;SDS_P1;SDS_P2;PMS_P1;PMS_P2;Temp;Humidity;BMP_temperature;BMP_pressure;BME280_temperature;BME280_humidity;BME280_pressure;Samples;Min_cycle;Max_cycle;Signal;HPM_P1;HPM_P2
2023/11/26 00:02:26;;;;;;;;;;;3.40;99.90;;;2.56;100.00;97643.75;5001536;28;1508;-72
2023/11/26 00:04:53;;;;;;;;;;;3.40;99.90;;;2.62;100.00;97633.44;4999335;28;1416;-72
2023/11/26 00:07:20;;;;;;;;;;;3.40;99.90;;;2.70;100.00;97636.78;5004969;28;1349;-73
2023/11/26 00:09:47;;;;;;;;;;;3.50;99.90;;;2.67;100.00;97640.22;5020710;28;1623;-72
2023/11/26 00:12:15;;;;;;;;;;;3.50;99.90;;;2.58;100.00;97634.31;5015621;28;1412;-72
2023/11/26 00:14:42;;;;;;;;;;;3.40;99.90;;;2.55;100.00;97629.25;5017723;28;1440;-73
2023/11/26 00:17:09;;;;;;;;;;;3.30;99.90;;;2.59;100.00;97628.34;5016732;28;1500;-72
2023/11/26 00:19:36;;;;;;;;;;;3.30;99.90;;;2.67;100.00;97631.69;5021090;28;1395;-73
2023/11/26 00:22:04;;;;;;;;;;;3.40;99.90;;;2.61;100.00;97636.88;5019394;28;1991;-73
2023/11/26 00:24:31;;;;;;;;;;;3.40;99.90;;;2.66;100.00;97642.78;5017558;28;1533;-73
2023/11/26 00:26:58;;;;;;;;;;;3.50;99.90;;;2.87;100.00;97637.47;5016362;28;1491;-73
2023/11/26 00:29:24;;;;;;;;;;;3.50;99.90;;;2.75;100.00;97646.97;5019095;28;1580;-73
2023/11/26 00:31:52;;;;;;;;;;;3.60;99.90;;;2.58;100.00;97644.56;5020107;28;1496;-72
2023/11/26 00:34:19;;;;;;;;;;;3.60;99.90;;;2.53;100.00;97647.19;5006437;28;1545;-73
2023/11/26 00:36:49;;;;;;;;;;;3.40;99.90;;;2.25;100.00;97644.03;5002198;28;1668;-72
2023/11/26 00:39:16;;;;;;;;;;;3.40;99.90;;;2.14;100.00;97649.22;5001089;28;1524;-73
2023/11/26 00:41:44;;;;;;;;;;;3.30;99.90;;;2.08;100.00;97650.13;5000009;28;1918;-73
2023/11/26 00:44:11;;;;;;;;;;;3.20;99.90;;;2.02;100.00;97654.44;5019581;28;1587;-73
2023/11/26 00:46:38;;;;;;;;;;;3.10;99.90;;;2.01;100.00;97645.09;5022067;28;1677;-73
2023/11/26 00:49:06;;;;;;;;;;;3.10;99.90;;;1.88;100.00;97654.56;5002107;28;1575;-72
2023/11/26 00:51:34;;;;;;;;;;;3.00;99.90;;;1.70;100.00;97652.13;5015984;28;1779;-72
2023/11/26 00:54:00;;;;;;;;;;;2.90;99.90;;;1.43;100.00;97662.47;5021249;28;1719;-73
2023/11/26 00:56:27;;;;;;;;;;;2.70;99.90;;;1.47;100.00;97665.88;5022125;28;1386;-73
2023/11/26 00:58:54;;;;;;;;;;;2.60;99.90;;;1.53;100.00;97659.88;5011686;28;1519;-73
2023/11/26 01:01:21;;;;;;;;;;;2.50;99.90;;;1.60;100.00;97659.84;5003134;28;1962;-74
2023/11/26 01:03:49;;;;;;;;;;;2.60;99.90;;;1.55;100.00;97669.25;5023576;28;1458;-73
2023/11/26 01:06:16;;;;;;;;;;;2.60;99.90;;;1.69;100.00;97674.31;5020285;28;1577;-73
2023/11/26 01:08:43;;;;;;;;;;;2.60;99.90;;;1.70;100.00;97676.00;5024317;28;1421;-74
2023/11/26 01:11:13;;;;;;;;;;;2.60;99.90;;;1.74;100.00;97669.16;5004685;28;1436;-74
2023/11/26 01:13:41;;;;;;;;;;;2.60;99.90;;;1.71;100.00;97682.81;5006393;28;1595;-73
2023/11/26 01:16:08;;;;;;;;;;;2.60;99.90;;;1.55;100.00;97671.81;5004822;28;1485;-72
2023/11/26 01:18:36;;;;;;;;;;;2.60;99.90;;;1.60;100.00;97679.47;5006852;28;1624;-72
2023/11/26 01:21:03;;;;;;;;;;;2.60;99.90;;;1.61;100.00;97682.00;5010234;28;1914;-73
2023/11/26 01:23:30;;;;;;;;;;;2.60;99.90;;;1.67;100.00;97676.00;5024088;28;1668;-72
2023/11/26 01:25:56;;;;;;;;;;;2.60;99.90;;;1.50;100.00;97676.09;5010215;28;1461;-72
2023/11/26 01:28:23;;;;;;;;;;;2.60;99.90;;;1.33;100.00;97675.34;5023195;28;1555;-73
2023/11/26 01:30:50;;;;;;;;;;;2.40;99.90;;;1.20;100.00;97684.75;5024857;28;1548;-73
2023/11/26 01:33:19;;;;;;;;;;;2.30;99.90;;;1.25;100.00;97690.69;5008765;28;1902;-73
2023/11/26 01:35:49;;;;;;;;;;;2.20;99.90;;;1.03;100.00;97700.16;5025064;28;1512;-73
2023/11/26 01:38:16;;;;;;;;;;;2.20;99.90;;;0.99;100.00;97706.97;5023842;28;1386;-72
2023/11/26 01:40:43;;;;;;;;;;;2.20;99.90;;;1.19;100.00;97700.97;4990988;28;1998;-73
2023/11/26 01:43:09;;;;;;;;;;;2.20;99.90;;;1.25;100.00;97695.81;5023156;28;2026;-73
2023/11/26 01:45:36;;;;;;;;;;;2.20;99.90;;;1.38;100.00;97694.91;5024062;28;1639;-73
2023/11/26 01:48:04;;;;;;;;;;;2.20;99.90;;;1.22;100.00;97699.22;5021977;28;1402;-73
2023/11/26 01:50:32;;;;;;;;;;;2.20;99.90;;;0.93;100.00;97695.91;5007025;28;1465;-72
2023/11/26 01:52:59;;;;;;;;;;;2.00;99.90;;;0.83;100.00;97688.25;5022642;28;1697;-73
2023/11/26 01:55:26;;;;;;;;;;;2.00;99.90;;;0.82;100.00;97695.91;5026645;28;1445;-72
2023/11/26 01:57:53;;;;;;;;;;;1.90;99.90;;;0.85;100.00;97693.38;5003354;28;1565;-73
2023/11/26 02:00:20;;;;;;;;;;;1.90;99.90;;;0.80;100.00;97698.50;5005030;28;1970;-73
2023/11/26 02:02:47;;;;;;;;;;;1.90;99.90;;;0.84;100.00;97696.78;5006266;28;1618;-72
2023/11/26 02:05:15;;;;;;;;;;;1.90;99.90;;;0.72;100.00;97697.66;5022428;28;1659;-73
2023/11/26 02:07:43;;;;;;;;;;;1.80;99.90;;;0.65;100.00;97695.13;5005174;28;1571;-73
2023/11/26 02:10:09;;;;;;;;;;;1.90;99.90;;;0.77;100.00;97701.03;5023002;28;1472;-73
2023/11/26 02:12:36;;;;;;;;;;;1.80;99.90;;;0.84;100.00;97701.88;5025006;28;1237;-73
2023/11/26 02:15:04;;;;;;;;;;;1.70;99.90;;;0.77;100.00;97695.09;5022270;28;1533;-73
2023/11/26 02:17:31;;;;;;;;;;;1.70;99.90;;;0.65;100.00;97698.53;5020583;28;1501;-72
2023/11/26 02:20:03;;;;;;;;;;;1.80;99.90;;;0.74;100.00;97710.44;5024895;28;1559;-73
2023/11/26 02:22:32;;;;;;;;;;;1.70;99.90;;;0.71;100.00;97705.31;5002213;28;1974;-72
2023/11/26 02:24:59;;;;;;;;;;;1.80;99.90;;;0.67;100.00;97696.81;5005315;28;1549;-72
2023/11/26 02:27:26;;;;;;;;;;;1.80;99.90;;;0.75;100.00;97701.91;5019385;28;1624;-72
2023/11/26 02:29:53;;;;;;;;;;;1.80;99.90;;;0.84;100.00;97696.78;5021241;28;1541;-72
2023/11/26 02:32:20;;;;;;;;;;;1.90;99.90;;;0.85;100.00;97700.19;5022392;28;1653;-72
2023/11/26 02:34:47;;;;;;;;;;;2.00;99.90;;;0.82;100.00;97699.34;5022255;28;1591;-72
2023/11/26 02:37:14;;;;;;;;;;;2.00;99.90;;;0.84;100.00;97712.09;5023183;28;1957;-72
2023/11/26 02:39:41;;;;;;;;;;;2.00;99.90;;;0.86;100.00;97709.56;5025554;28;1068;-73
2023/11/26 02:42:12;;;;;;;;;;;2.00;99.90;;;0.98;100.00;97707.84;5025446;28;1910;-72
2023/11/26 02:44:39;;;;;;;;;;;2.10;99.90;;;1.06;100.00;97704.41;5003269;28;1588;-72
2023/11/26 02:47:07;;;;;;;;;;;2.10;99.90;;;1.04;100.00;97705.25;5006487;28;1449;-72
2023/11/26 02:49:34;;;;;;;;;;;2.10;99.90;;;0.96;100.00;97712.09;5019901;28;1441;-72
2023/11/26 02:52:01;;;;;;;;;;;2.20;99.90;;;1.09;100.00;97710.34;5005648;28;1562;-73
2023/11/26 02:54:28;;;;;;;;;;;2.10;99.90;;;1.04;100.00;97712.06;5003466;28;1680;-71
2023/11/26 02:56:55;;;;;;;;;;;2.10;99.90;;;1.13;100.00;97712.03;5020270;28;1405;-73
2023/11/26 02:59:22;;;;;;;;;;;2.20;99.90;;;1.29;100.00;97704.31;5010750;28;1851;-71
2023/11/26 03:01:49;;;;;;;;;;;2.30;99.90;;;1.27;100.00;97709.44;5023852;28;1991;-70
2023/11/26 03:04:21;;;;;;;;;;;2.30;99.90;;;1.30;100.00;97699.22;5010019;28;1720;-71
2023/11/26 03:06:48;;;;;;;;;;;2.40;99.90;;;1.29;100.00;97699.22;5019097;28;1520;-71
2023/11/26 03:14:46;;;;;;;;;;;2.40;99.90;;;1.40;100.00;97700.03;5022602;28;1509;-72
2023/11/26 03:17:13;;;;;;;;;;;2.50;99.90;;;1.44;100.00;97702.56;5021005;28;1668;-70
2023/11/26 03:19:42;;;;;;;;;;;2.50;99.90;;;1.47;100.00;97694.03;5021994;28;1571;-72
2023/11/26 03:22:09;;;;;;;;;;;2.50;99.90;;;1.34;100.00;97702.59;5023490;28;1903;-72
2023/11/26 03:24:36;;;;;;;;;;;2.40;99.90;;;1.34;100.00;97698.31;5016754;28;1606;-72
2023/11/26 03:27:03;;;;;;;;;;;2.50;99.90;;;1.37;100.00;97698.34;5017956;28;1528;-73
2023/11/26 03:29:30;;;;;;;;;;;2.40;99.90;;;1.34;100.00;97705.16;5021960;28;1518;-71
2023/11/26 03:31:58;;;;;;;;;;;2.50;99.90;;;1.39;100.00;97703.41;5018820;28;1575;-71
2023/11/26 03:34:28;;;;;;;;;;;2.40;99.90;;;1.40;100.00;97705.97;5004110;28;1720;-71
2023/11/26 03:36:56;;;;;;;;;;;2.50;99.90;;;1.35;100.00;97707.72;5019669;28;1508;-71
2023/11/26 03:39:24;;;;;;;;;;;2.50;99.90;;;1.51;100.00;97711.06;5005066;28;1537;-71
2023/11/26 03:41:51;;;;;;;;;;;2.50;99.90;;;1.51;100.00;97717.88;5018851;28;1990;-71
2023/11/26 03:44:18;;;;;;;;;;;2.60;99.90;;;1.60;100.00;97722.97;5020750;28;1528;-71
2023/11/26 03:46:46;;;;;;;;;;;2.60;99.90;;;1.62;100.00;97709.31;5019212;28;1609;-71
2023/11/26 03:49:12;;;;;;;;;;;2.60;99.90;;;1.63;100.00;97720.38;5021448;28;1820;-71
2023/11/26 03:51:39;;;;;;;;;;;2.60;99.90;;;1.68;100.00;97716.94;5004123;28;1723;-71
2023/11/26 03:54:06;;;;;;;;;;;2.70;99.90;;;1.74;100.00;97717.78;5021676;28;1385;-71
2023/11/26 03:56:34;;;;;;;;;;;2.70;99.90;;;1.73;100.00;97721.19;5021306;28;1413;-72
2023/11/26 03:59:01;;;;;;;;;;;2.80;99.90;;;1.78;100.00;97722.88;5021533;28;1549;-71
2023/11/26 04:01:28;;;;;;;;;;;2.80;99.90;;;1.85;100.00;97724.53;5020278;28;1898;-72
2023/11/26 04:03:55;;;;;;;;;;;2.80;99.90;;;1.87;100.00;97715.13;5025780;28;1461;-72
2023/11/26 04:06:22;;;;;;;;;;;2.80;99.90;;;1.84;100.00;97719.41;5020165;28;1503;-73
2023/11/26 04:08:49;;;;;;;;;;;2.90;99.90;;;1.78;100.00;97725.44;5004707;28;1489;-71
2023/11/26 04:11:16;;;;;;;;;;;2.80;99.90;;;1.80;100.00;97716.03;5019967;28;1420;-71
2023/11/26 04:13:43;;;;;;;;;;;2.90;99.90;;;1.73;100.00;97718.63;5020285;28;1511;-71
2023/11/26 04:16:11;;;;;;;;;;;2.80;99.90;;;1.69;100.00;97712.69;5021977;28;1532;-71
2023/11/26 04:18:39;;;;;;;;;;;2.80;99.90;;;1.64;100.00;97717.81;5021066;28;1523;-71
2023/11/26 04:21:07;;;;;;;;;;;2.80;99.90;;;1.61;100.00;97714.41;5021041;28;1910;-71
2023/11/26 04:23:34;;;;;;;;;;;2.70;99.90;;;1.71;100.00;97721.22;5021067;28;1678;-72
2023/11/26 04:26:01;;;;;;;;;;;2.70;99.90;;;1.74;100.00;97716.06;5020310;28;1526;-71
2023/11/26 04:28:28;;;;;;;;;;;2.70;99.90;;;1.84;100.00;97720.25;5004279;28;1614;-71
2023/11/26 04:30:55;;;;;;;;;;;2.70;99.90;;;1.82;100.00;97718.56;5019942;28;1550;-72
2023/11/26 04:33:22;;;;;;;;;;;2.70;99.90;;;1.64;100.00;97727.19;5022171;28;1408;-73
2023/11/26 04:35:49;;;;;;;;;;;2.70;99.90;;;1.56;100.00;97723.81;5016865;28;1485;-70
2023/11/26 04:38:16;;;;;;;;;;;2.70;99.90;;;1.67;100.00;97725.47;5003375;28;1638;-70
2023/11/26 04:40:43;;;;;;;;;;;2.60;99.90;;;1.79;100.00;97728.84;5022115;28;1556;-71
2023/11/26 04:43:10;;;;;;;;;;;2.60;99.90;;;1.75;100.00;97732.25;5019529;28;1898;-71
2023/11/26 04:45:36;;;;;;;;;;;2.70;99.90;;;1.68;100.00;97724.59;5020626;28;1535;-71
2023/11/26 04:48:04;;;;;;;;;;;2.70;99.90;;;1.63;100.00;97725.50;5003187;28;1553;-73
2023/11/26 04:50:31;;;;;;;;;;;2.70;99.90;;;1.75;100.00;97732.25;4988481;28;1583;-71
2023/11/26 04:52:58;;;;;;;;;;;2.70;99.90;;;1.68;100.00;97731.44;5024608;28;1418;-71
2023/11/26 04:55:25;;;;;;;;;;;2.70;99.90;;;1.73;100.00;97729.69;4988867;28;1639;-71
2023/11/26 04:57:52;;;;;;;;;;;2.70;99.90;;;1.63;100.00;97733.19;5025814;28;1596;-71
2023/11/26 05:00:21;;;;;;;;;;;2.70;99.90;;;1.64;100.00;97729.75;5012573;28;1609;-73
2023/11/26 05:02:50;;;;;;;;;;;2.70;99.90;;;1.62;100.00;97723.78;5025022;28;1993;-71
2023/11/26 05:05:17;;;;;;;;;;;2.70;99.90;;;1.70;100.00;97734.84;5025605;28;1566;-73
2023/11/26 05:07:44;;;;;;;;;;;2.70;99.90;;;1.66;100.00;97739.09;5025899;28;1638;-73
2023/11/26 05:10:11;;;;;;;;;;;2.70;99.90;;;1.75;100.00;97740.78;4992937;28;1554;-72
2023/11/26 05:12:38;;;;;;;;;;;2.70;99.90;;;1.66;100.00;97736.56;5027289;28;1527;-72
2023/11/26 05:15:06;;;;;;;;;;;2.70;99.90;;;1.68;100.00;97737.41;5024903;28;1571;-73
2023/11/26 05:17:32;;;;;;;;;;;2.70;99.90;;;1.67;100.00;97738.28;5010416;28;1801;-72
2023/11/26 05:19:59;;;;;;;;;;;2.80;99.90;;;1.69;100.00;97743.38;5025397;28;1651;-72
2023/11/26 05:22:26;;;;;;;;;;;2.80;99.90;;;1.76;100.00;97744.22;5026239;28;1906;-73
2023/11/26 05:24:53;;;;;;;;;;;2.80;99.90;;;1.83;100.00;97745.88;5024380;28;1418;-72
2023/11/26 05:27:21;;;;;;;;;;;2.90;99.90;;;1.77;100.00;97745.91;5021724;28;1481;-73
2023/11/26 05:29:48;;;;;;;;;;;2.90;99.90;;;1.78;100.00;97755.25;5004984;28;1514;-72
2023/11/26 05:32:15;;;;;;;;;;;2.90;99.90;;;1.84;100.00;97745.00;5022282;28;1528;-73
2023/11/26 05:34:42;;;;;;;;;;;2.80;99.90;;;1.82;100.00;97746.72;5024799;28;1524;-73
2023/11/26 05:37:11;;;;;;;;;;;2.90;99.90;;;1.88;100.00;97751.81;5022662;28;1552;-73
2023/11/26 05:39:38;;;;;;;;;;;2.90;99.90;;;1.91;100.00;97753.50;5021557;28;1545;-73
2023/11/26 05:42:05;;;;;;;;;;;2.90;99.90;;;1.79;100.00;97747.59;5020777;28;1902;-73
2023/11/26 05:44:32;;;;;;;;;;;2.80;99.90;;;1.83;100.00;97751.00;5023853;28;1682;-72
2023/11/26 05:47:00;;;;;;;;;;;2.80;99.90;;;1.76;100.00;97757.00;5004787;28;1472;-73
2023/11/26 05:49:27;;;;;;;;;;;2.80;99.90;;;1.79;100.00;97759.53;5010074;28;1549;-73
2023/11/26 05:51:57;;;;;;;;;;;2.70;99.90;;;1.70;100.00;97749.34;5021568;28;1717;-72
2023/11/26 05:54:24;;;;;;;;;;;2.80;99.90;;;1.74;100.00;97751.03;5007899;28;1577;-73
2023/11/26 05:56:51;;;;;;;;;;;2.70;99.90;;;1.79;100.00;97755.25;5003150;28;1553;-73
2023/11/26 05:59:18;;;;;;;;;;;2.70;99.90;;;1.75;100.00;97768.94;5023379;28;1395;-73
2023/11/26 06:01:44;;;;;;;;;;;2.70;99.90;;;1.79;100.00;97767.22;5021523;28;1902;-74
2023/11/26 06:04:11;;;;;;;;;;;2.70;99.90;;;1.84;100.00;97762.91;5020846;28;1501;-73
2023/11/26 06:06:38;;;;;;;;;;;2.70;99.90;;;1.61;100.00;97771.53;5023394;28;1489;-73
2023/11/26 06:09:06;;;;;;;;;;;2.70;99.90;;;1.63;100.00;97769.84;5024162;28;1426;-72
2023/11/26 06:11:32;;;;;;;;;;;2.70;99.90;;;1.73;100.00;97765.53;5021682;28;1732;-72
2023/11/26 06:13:59;;;;;;;;;;;2.60;99.90;;;1.77;100.00;97774.06;5010085;28;1494;-73
2023/11/26 06:16:26;;;;;;;;;;;2.50;99.90;;;1.62;100.00;97772.41;5024469;28;1561;-72
2023/11/26 06:18:53;;;;;;;;;;;2.60;99.90;;;1.70;100.00;97780.91;5022199;28;1620;-72
2023/11/26 06:21:38;;;;;;;;;;;2.50;99.90;;;1.61;100.00;97780.94;5022173;28;1913;-73
2023/11/26 06:24:06;;;;;;;;;;;2.60;99.90;;;1.64;100.00;97783.47;5025198;28;1545;-73
2023/11/26 06:26:34;;;;;;;;;;;2.60;99.90;;;1.53;100.00;97783.53;5023345;28;1655;-72
2023/11/26 06:29:01;;;;;;;;;;;2.60;99.90;;;1.52;100.00;97786.09;5022586;28;1549;-73
2023/11/26 06:31:29;;;;;;;;;;;2.60;99.90;;;1.55;100.00;97778.41;5024148;28;1525;-73
2023/11/26 06:33:58;;;;;;;;;;;2.60;99.90;;;1.66;100.00;97794.56;5023232;28;1643;-72
2023/11/26 06:36:25;;;;;;;;;;;2.70;99.90;;;1.74;100.00;97790.28;5023225;28;1783;-72
2023/11/26 06:38:54;;;;;;;;;;;2.70;99.90;;;1.69;100.00;97789.44;5004128;28;1680;-73
2023/11/26 06:41:24;;;;;;;;;;;2.70;99.90;;;1.71;100.00;97791.97;4992915;28;1552;-72
2023/11/26 06:43:53;;;;;;;;;;;2.70;99.90;;;1.76;100.00;97790.28;5023069;28;1967;-72
2023/11/26 06:46:22;;;;;;;;;;;2.80;99.90;;;1.71;100.00;97789.41;5022674;28;1608;-73
2023/11/26 06:48:50;;;;;;;;;;;2.80;99.90;;;1.64;100.00;97786.91;5022371;28;1587;-72
2023/11/26 06:51:19;;;;;;;;;;;2.80;99.90;;;1.68;100.00;97793.69;5006766;28;1535;-72
2023/11/26 06:53:47;;;;;;;;;;;2.70;99.90;;;1.67;100.00;97792.00;5024555;28;1587;-74
2023/11/26 06:56:15;;;;;;;;;;;2.70;99.90;;;1.61;100.00;97791.16;5017426;28;1627;-73
2023/11/26 06:58:43;;;;;;;;;;;2.70;99.90;;;1.61;100.00;97802.25;5022872;28;1552;-73
2023/11/26 07:01:11;;;;;;;;;;;2.70;99.90;;;1.57;100.00;97797.16;5002657;28;1605;-73
2023/11/26 07:03:38;;;;;;;;;;;2.60;99.90;;;1.49;100.00;97804.03;5023072;28;1981;-73
2023/11/26 07:06:07;;;;;;;;;;;2.70;99.90;;;1.53;100.00;97808.25;5022999;28;1558;-74
2023/11/26 07:08:37;;;;;;;;;;;2.60;99.90;;;1.57;100.00;97818.47;5021628;28;1402;-73
2023/11/26 07:11:04;;;;;;;;;;;2.60;99.90;;;1.58;100.00;97819.34;5012645;28;1815;-74
2023/11/26 07:13:32;;;;;;;;;;;2.60;99.90;;;1.52;100.00;97821.91;5009141;28;1380;-72
2023/11/26 07:15:59;;;;;;;;;;;2.50;99.90;;;1.65;100.00;97816.75;5004294;28;1669;-72
2023/11/26 07:18:26;;;;;;;;;;;2.50;99.90;;;1.59;100.00;97821.03;5023920;28;1409;-72
2023/11/26 07:20:53;;;;;;;;;;;2.50;99.90;;;1.48;100.00;97817.66;5021785;28;1622;-72
2023/11/26 07:23:21;;;;;;;;;;;2.50;99.90;;;1.40;100.00;97822.78;5019609;28;1902;-72
2023/11/26 07:25:48;;;;;;;;;;;2.40;99.90;;;1.44;100.00;97820.22;5022679;28;1782;-72
2023/11/26 07:28:15;;;;;;;;;;;2.50;99.90;;;1.44;100.00;97827.91;5020820;28;1861;-72
2023/11/26 07:30:42;;;;;;;;;;;2.50;99.90;;;1.40;100.00;97826.19;5024733;28;1470;-73
2023/11/26 07:33:09;;;;;;;;;;;2.50;99.90;;;1.51;100.00;97821.06;5005504;28;1482;-73
2023/11/26 07:35:37;;;;;;;;;;;2.50;99.90;;;1.64;100.00;97826.97;5006298;28;1568;-72
2023/11/26 07:38:04;;;;;;;;;;;2.60;99.90;;;1.55;100.00;97832.13;5021808;28;1448;-73
2023/11/26 07:40:34;;;;;;;;;;;2.70;99.90;;;1.54;100.00;97836.38;5003431;28;1383;-73
2023/11/26 07:43:01;;;;;;;;;;;2.70;99.90;;;1.57;100.00;97836.38;5006806;28;1903;-72
2023/11/26 07:45:28;;;;;;;;;;;2.70;99.90;;;1.78;100.00;97834.59;5019065;28;1611;-73
2023/11/26 07:47:55;;;;;;;;;;;2.70;99.90;;;1.92;100.00;97837.13;5022210;28;1548;-73
2023/11/26 07:50:22;;;;;;;;;;;2.70;99.90;;;2.00;100.00;97835.38;5019674;28;1703;-72
2023/11/26 07:52:49;;;;;;;;;;;2.70;99.90;;;2.02;100.00;97839.63;5021214;28;1737;-72
2023/11/26 07:55:16;;;;;;;;;;;2.70;99.90;;;2.01;100.00;97842.22;5021614;28;1433;-72
2023/11/26 07:57:44;;;;;;;;;;;2.60;99.90;;;1.86;100.00;97832.88;5019960;28;1627;-73
2023/11/26 08:00:13;;;;;;;;;;;2.70;99.90;;;1.95;100.00;97837.97;5003573;28;1483;-72
2023/11/26 08:02:40;;;;;;;;;;;2.70;99.90;;;2.08;100.00;97841.34;5004469;28;1918;-73
2023/11/26 08:05:10;;;;;;;;;;;2.60;99.90;;;1.67;100.00;97832.94;5022922;28;1338;-73
2023/11/26 08:07:37;;;;;;;;;;;2.60;99.90;;;1.77;100.00;97833.75;5022511;28;1580;-72
2023/11/26 08:10:10;;;;;;;;;;;2.60;99.90;;;1.78;100.00;97835.47;5020172;28;1496;-73
2023/11/26 08:12:54;;;;;;;;;;;2.60;99.90;;;1.87;100.00;97837.13;5019827;28;1572;-72
2023/11/26 08:15:23;;;;;;;;;;;2.70;99.90;;;1.88;100.00;97834.56;5020557;28;1497;-72
2023/11/26 08:17:50;;;;;;;;;;;2.80;99.90;;;1.93;100.00;97839.66;5003080;28;1557;-72
2023/11/26 08:20:18;;;;;;;;;;;2.80;99.90;;;2.08;100.00;97841.34;5005834;28;1379;-72
2023/11/26 08:22:48;;;;;;;;;;;2.90;99.90;;;2.28;100.00;97846.31;5018767;28;1985;-75
2023/11/26 08:25:22;;;;;;;;;;;3.00;99.90;;;2.33;100.00;97847.19;5021473;28;1362;-72
2023/11/26 08:27:52;;;;;;;;;;;3.00;99.90;;;2.39;100.00;97848.84;5026066;28;1543;-73
2023/11/26 08:30:31;;;;;;;;;;;3.20;99.90;;;2.75;100.00;97858.00;5024151;28;1546;-73
2023/11/26 08:33:02;;;;;;;;;;;3.10;99.90;;;2.89;100.00;97847.66;5020609;28;1599;-72
2023/11/26 08:35:29;;;;;;;;;;;3.20;99.90;;;2.61;100.00;97849.56;5022449;28;1307;-73
2023/11/26 08:37:56;;;;;;;;;;;3.20;99.90;;;2.67;100.00;97857.22;5023413;28;1543;-73
2023/11/26 08:40:23;;;;;;;;;;;3.20;99.90;;;2.50;100.00;97852.19;5025427;28;1458;-74
2023/11/26 08:42:52;;;;;;;;;;;3.20;99.90;;;2.68;100.00;97859.75;5022913;28;2017;-72
2023/11/26 08:45:19;;;;;;;;;;;3.30;99.90;;;2.56;100.00;97864.97;5005364;28;1686;-72
2023/11/26 08:47:47;;;;;;;;;;;3.30;99.90;;;2.52;100.00;97870.97;5020781;28;1542;-73
2023/11/26 08:50:14;;;;;;;;;;;3.40;99.90;;;2.55;100.00;97868.38;5003325;28;1692;-73
2023/11/26 08:52:41;;;;;;;;;;;3.40;99.90;;;2.64;100.00;97867.47;5023731;28;1561;-72
2023/11/26 08:55:09;;;;;;;;;;;3.50;99.90;;;2.50;100.00;97860.72;5003303;28;1898;-73
2023/11/26 08:57:40;;;;;;;;;;;;;;;2.61;100.00;97864.94;5005664;28;1546;-72
2023/11/26 09:00:10;;;;;;;;;;;3.50;99.90;;;2.79;100.00;97863.97;5011093;28;1390;-72
2023/11/26 09:02:46;;;;;;;;;;;3.60;99.90;;;2.69;100.00;97868.28;5023413;28;2053;-73
2023/11/26 09:05:13;;;;;;;;;;;3.60;99.90;;;2.86;100.00;97873.31;5006882;28;1415;-73
2023/11/26 09:07:41;;;;;;;;;;;3.50;99.90;;;3.06;100.00;97871.47;5024289;28;1803;-73
2023/11/26 09:10:09;;;;;;;;;;;3.60;99.90;;;3.05;100.00;97876.59;5007151;28;1374;-73
2023/11/26 09:12:37;;;;;;;;;;;3.60;99.90;;;2.94;100.00;97884.34;5021945;28;1409;-72
2023/11/26 09:15:07;;;;;;;;;;;3.60;99.90;;;2.78;100.00;97880.19;5023898;28;1676;-73
2023/11/26 09:17:34;;;;;;;;;;;3.70;99.90;;;3.02;100.00;97876.63;5002544;28;1396;-73
2023/11/26 09:20:01;;;;;;;;;;;3.60;99.90;;;2.96;100.00;97890.34;5023943;28;1573;-72
2023/11/26 09:22:28;;;;;;;;;;;3.70;99.90;;;2.96;100.00;97886.91;5023653;28;1911;-73
2023/11/26 09:24:54;;;;;;;;;;;3.80;99.90;;;3.03;100.00;97884.28;5024943;28;1395;-73
2023/11/26 09:27:21;;;;;;;;;;;3.80;99.90;;;3.15;100.00;97880.81;5024979;28;1350;-72
2023/11/26 09:29:48;;;;;;;;;;;3.90;99.90;;;3.33;100.00;97883.22;5004588;28;1428;-72
2023/11/26 09:32:15;;;;;;;;;;;4.00;99.90;;;3.33;100.00;97878.06;5021284;28;1383;-73
2023/11/26 09:34:42;;;;;;;;;;;4.00;99.90;;;3.16;100.00;97873.94;5020208;28;1456;-72
2023/11/26 09:37:09;;;;;;;;;;;4.10;99.90;;;3.34;100.00;97882.34;5022774;28;1441;-73
2023/11/26 09:39:38;;;;;;;;;;;4.10;99.90;;;3.32;100.00;97878.94;5004880;28;1397;-72
2023/11/26 09:42:05;;;;;;;;;;;4.10;99.90;;;3.18;100.00;97870.50;5021687;28;1380;-73
2023/11/26 09:44:32;;;;;;;;;;;4.10;99.90;;;3.36;100.00;97877.19;5026311;28;1999;-72
2023/11/26 09:47:01;;;;;;;;;;;4.10;99.90;;;3.24;100.00;97872.16;5009324;28;1443;-72
2023/11/26 09:49:28;;;;;;;;;;;4.00;99.90;;;3.44;100.00;97872.81;5022094;28;1629;-73
2023/11/26 09:51:57;;;;;;;;;;;4.10;99.90;;;3.31;100.00;97874.66;5023236;28;1495;-72
2023/11/26 09:54:24;;;;;;;;;;;4.10;99.90;;;3.25;100.00;97871.31;5020427;28;1426;-73
2023/11/26 09:56:55;;;;;;;;;;;4.20;99.90;;;3.45;100.00;97866.00;5022955;28;1371;-73
2023/11/26 09:59:24;;;;;;;;;;;4.20;99.90;;;3.46;100.00;97860.84;5001863;28;1492;-74
2023/11/26 10:01:50;;;;;;;;;;;4.30;99.90;;;3.50;100.00;97869.38;5015721;28;1640;-73
2023/11/26 10:04:17;;;;;;;;;;;4.30;99.90;;;3.54;100.00;97868.47;5021137;28;1981;-73
2023/11/26 10:06:49;;;;;;;;;;;4.30;99.90;;;3.51;100.00;97871.06;5016977;28;1484;-73
2023/11/26 10:09:18;;;;;;;;;;;4.40;99.90;;;3.34;100.00;97860.97;5003960;28;1655;-73
2023/11/26 10:11:45;;;;;;;;;;;4.30;99.90;;;3.43;100.00;97865.16;5017121;28;1540;-73
2023/11/26 10:14:16;;;;;;;;;;;4.20;99.90;;;3.52;100.00;97871.03;5002909;28;1235;-72
2023/11/26 10:16:43;;;;;;;;;;;4.20;99.90;;;3.66;100.00;97864.94;5023184;28;1552;-73
2023/11/26 10:19:25;;;;;;;;;;;4.30;99.90;;;3.42;100.00;97853.19;5022657;28;1395;-73
2023/11/26 10:21:57;;;;;;;;;;;4.20;99.90;;;3.61;100.00;97859.00;5018273;28;1419;-73
2023/11/26 10:24:27;;;;;;;;;;;4.20;99.90;;;3.27;100.00;97860.16;5023476;28;1983;-71
2023/11/26 10:26:54;;;;;;;;;;;4.20;99.90;;;3.54;100.00;97865.91;4999807;28;1417;-73
2023/11/26 10:29:23;;;;;;;;;;;4.20;99.90;;;3.34;100.00;97851.53;5022651;28;1527;-73
2023/11/26 10:31:59;;;;;;;;;;;4.20;99.90;;;3.45;100.00;97854.00;5019048;28;1468;-72
2023/11/26 10:34:28;;;;;;;;;;;4.20;99.90;;;3.43;100.00;97849.75;5018878;28;1422;-73
2023/11/26 10:36:55;;;;;;;;;;;4.20;99.90;;;3.47;100.00;97842.03;5004581;28;1448;-73
2023/11/26 10:39:22;;;;;;;;;;;4.20;99.90;;;3.55;100.00;97841.94;5020037;28;1408;-73
2023/11/26 10:41:49;;;;;;;;;;;4.40;99.90;;;3.53;100.00;97841.94;5019313;28;1478;-74
2023/11/26 10:44:17;;;;;;;;;;;4.30;99.90;;;3.52;100.00;97837.69;4998102;28;2019;-73
2023/11/26 10:46:46;;;;;;;;;;;4.50;99.90;;;3.56;100.00;97838.50;5019292;28;1515;-74
2023/11/26 10:49:38;;;;;;;;;;;4.50;99.90;;;3.48;100.00;97840.28;5002179;28;1409;-76
2023/11/26 10:52:18;;;;;;;;;;;4.40;99.90;;;3.45;100.00;97835.22;5014526;28;1756;-74
2023/11/26 10:55:02;;;;;;;;;;;4.30;99.90;;;3.47;100.00;97833.47;4985987;28;1422;-70
2023/11/26 10:57:39;;;;;;;;;;;4.30;99.90;;;3.41;100.00;97846.38;5003834;28;1472;-69
2023/11/26 11:00:18;;;;;;;;;;;4.30;99.90;;;3.60;100.00;97836.75;5003856;28;1984;-70
2023/11/26 11:02:47;;;;;;;;;;;4.30;99.90;;;3.58;100.00;97836.78;5019205;28;1910;-69
2023/11/26 11:05:15;;;;;;;;;;;4.30;99.90;;;3.67;100.00;97835.81;4971316;28;1439;-69
2023/11/26 11:07:42;;;;;;;;;;;4.30;99.90;;;3.52;100.00;97834.28;5020258;28;1712;-68
2023/11/26 11:10:35;;;;;;;;;;;4.30;99.90;;;3.70;100.00;97831.50;5021934;28;1410;-69
2023/11/26 11:13:16;;;;;;;;;;;4.30;99.90;;;3.72;100.00;97836.63;5003475;28;1649;-70
2023/11/26 11:15:44;;;;;;;;;;;4.30;99.90;;;3.61;100.00;97834.19;4985210;28;1481;-69
2023/11/26 11:18:41;;;;;;;;;;;4.30;99.90;;;3.78;100.00;97831.41;5001507;28;1382;-70
2023/11/26 11:21:09;;;;;;;;;;;4.40;99.90;;;3.64;100.00;97829.00;5003651;28;1493;-71
2023/11/26 11:23:50;;;;;;;;;;;4.40;99.90;;;3.68;100.00;97817.00;5022591;28;1902;-70
2023/11/26 11:26:18;;;;;;;;;;;4.50;99.90;;;3.70;100.00;97825.53;5020761;28;1446;-71
2023/11/26 11:28:48;;;;;;;;;;;4.50;99.90;;;3.83;100.00;97826.22;4983457;28;1504;-70
2023/11/26 11:31:18;;;;;;;;;;;4.60;99.90;;;3.83;100.00;97821.09;5019573;28;1550;-71
2023/11/26 11:33:58;;;;;;;;;;;4.60;99.90;;;4.03;100.00;97825.97;5018678;28;1493;-70
2023/11/26 11:36:49;;;;;;;;;;;4.60;99.90;;;3.87;100.00;97823.59;5020897;28;1399;-70
2023/11/26 11:39:21;;;;;;;;;;;4.70;99.90;;;3.94;100.00;97825.22;5019848;28;1260;-69
2023/11/26 11:41:57;;;;;;;;;;;4.70;99.90;;;3.98;100.00;97821.75;5020354;28;1680;-69
2023/11/26 11:44:35;;;;;;;;;;;4.70;99.90;;;3.89;100.00;97823.59;5020253;28;1914;-69
2023/11/26 11:47:03;;;;;;;;;;;4.70;99.90;;;3.82;100.00;97821.97;5019345;28;1485;-69